Time;durP1;ratioP1;P1;durP2;ratioP2;P2;SDS_P1;SDS_P2;PMS_P1;PMS_P2;Temp;Humidity;BMP_temperature;BMP_pressure;BME280_temperature;BME280_humidity;BME280_pressure;Samples;Min_cycle;Max_cycle;Signal;HPM_P1;HPM_P2
2022/09/11 00:01:42;;;;;;;1.85;1.50;;;17.20;60.40;;;;;;20690;6744;310210;-86
2022/09/11 00:04:17;;;;;;;2.17;1.50;;;17.50;61.30;;;;;;20628;6730;307985;-86
2022/09/11 00:06:53;;;;;;;2.40;1.37;;;17.90;60.50;;;;;;20876;6741;120780;-87
2022/09/11 00:09:30;;;;;;;1.60;1.50;;;17.80;59.80;;;;;;20859;6748;116872;-86
2022/09/11 00:12:06;;;;;;;3.10;1.50;;;17.60;60.10;;;;;;20658;6738;306073;-88
2022/09/11 00:14:41;;;;;;;1.57;1.10;;;17.80;60.40;;;;;;20745;6763;117388;-86
2022/09/11 00:17:17;;;;;;;2.20;1.20;;;17.70;59.90;;;;;;20871;6742;117006;-86
2022/09/11 00:19:52;;;;;;;1.40;1.30;;;17.50;60.10;;;;;;20659;6737;287103;-87
2022/09/11 00:22:28;;;;;;;1.53;1.27;;;17.70;60.40;;;;;;20653;6742;280507;-88
2022/09/11 00:25:03;;;;;;;1.47;1.37;;;18.00;59.90;;;;;;20650;6772;116532;-90
2022/09/11 00:27:39;;;;;;;2.17;1.30;;;17.90;59.40;;;;;;20887;6731;116833;-88
2022/09/11 00:30:15;;;;;;;1.30;1.13;;;17.70;59.90;;;;;;20810;6753;116959;-86
2022/09/11 00:32:52;;;;;;;1.57;1.10;;;17.30;60.50;;;;;;20749;6787;116339;-86
2022/09/11 00:35:29;;;;;;;2.45;1.33;;;17.30;60.50;;;;;;20399;6770;278333;-87
2022/09/11 00:38:07;;;;;;;2.67;1.70;;;17.50;60.90;;;;;;20621;6750;281038;-86
2022/09/11 00:40:46;;;;;;;2.33;1.52;;;17.90;60.20;;;;;;20591;6760;306105;-88
2022/09/11 00:43:21;;;;;;;1.50;1.40;;;18.20;59.50;;;;;;20568;6775;307049;-88
2022/09/11 00:45:57;;;;;;;2.07;1.60;;;18.40;58.70;;;;;;20527;6778;310658;-88
2022/09/11 00:48:32;;;;;;;1.77;1.23;;;18.60;59.00;;;;;;20807;6763;118367;-86
2022/09/11 00:51:08;;;;;;;1.43;1.33;;;18.30;58.30;;;;;;20766;6775;114865;-86
2022/09/11 00:53:43;;;;;;;2.23;1.17;;;17.90;58.90;;;;;;20778;6762;117429;-89
2022/09/11 00:56:19;;;;;;;1.50;1.40;;;17.60;59.60;;;;;;20594;6765;313136;-86
2022/09/11 00:58:54;;;;;;;2.20;1.60;;;17.80;60.00;;;;;;20530;6777;307213;-86
2022/09/11 01:01:30;;;;;;;3.47;1.60;;;18.10;59.20;;;;;;20507;6792;304380;-86
2022/09/11 01:04:06;;;;;;;2.03;1.60;;;18.30;58.40;;;;;;20517;6762;315418;-85
2022/09/11 01:06:45;;;;;;;1.23;1.20;;;18.40;57.90;;;;;;20827;6754;117092;-86
2022/09/11 01:09:19;;;;;;;2.37;1.60;;;18.10;57.90;;;;;;20617;6754;306111;-86
2022/09/11 01:12:13;;;;;;;2.27;1.13;;;18.10;58.50;;;;;;20814;6754;117202;-86
2022/09/11 01:14:58;;;;;;;2.90;1.60;;;17.90;58.50;;;;;;20472;6759;324282;-89
2022/09/11 01:17:43;;;;;;;2.13;1.40;;;18.00;58.90;;;;;;20572;6767;306684;-87
2022/09/11 01:20:19;;;;;;;2.10;1.10;;;18.20;58.40;;;;;;20771;6762;118298;-88
2022/09/11 01:22:58;;;;;;;2.37;1.47;;;18.00;58.50;;;;;;20757;6774;117209;-86
2022/09/11 01:25:53;;;;;;;1.85;1.42;;;17.70;59.30;;;;;;20480;6759;278617;-86
2022/09/11 01:28:32;;;;;;;1.57;1.47;;;17.80;59.60;;;;;;20665;6735;284362;-87
2022/09/11 01:31:08;;;;;;;1.43;1.33;;;18.10;59.10;;;;;;20736;6825;121390;-86
2022/09/11 01:33:43;;;;;;;1.57;1.47;;;18.00;58.80;;;;;;20515;6724;308229;-86
2022/09/11 01:36:33;;;;;;;2.22;1.42;;;18.10;59.20;;;;;;20709;6724;306040;-86
2022/09/11 01:39:08;;;;;;;1.93;1.43;;;18.10;58.70;;;;;;20860;6753;116751;-86
2022/09/11 01:41:44;;;;;;;2.40;1.43;;;18.10;59.30;;;;;;20840;6738;118596;-88
2022/09/11 01:44:26;;;;;;;2.33;1.65;;;17.80;59.10;;;;;;20691;6708;280385;-86
2022/09/11 01:47:02;;;;;;;2.00;1.60;;;17.90;59.80;;;;;;20771;6708;333351;-86
2022/09/11 01:49:46;;;;;;;2.28;1.65;;;18.40;58.20;;;;;;20769;6708;305379;-85
2022/09/11 01:52:21;;;;;;;3.83;1.47;;;18.40;58.50;;;;;;20879;6723;117600;-85
2022/09/11 01:54:58;;;;;;;2.10;1.60;;;18.20;58.50;;;;;;20599;6723;341420;-86
2022/09/11 01:57:32;;;;;;;1.50;1.40;;;18.20;58.80;;;;;;20951;6718;121502;-86
2022/09/11 02:00:09;;;;;;;1.80;1.40;;;18.00;58.70;;;;;;20915;6708;118563;-89
2022/09/11 02:02:44;;;;;;;2.03;1.65;;;17.70;59.10;;;;;;20749;6708;307161;-85
2022/09/11 02:05:21;;;;;;;1.87;1.20;;;17.80;59.90;;;;;;20788;6724;118420;-87
2022/09/11 02:08:02;;;;;;;3.40;1.40;;;17.70;59.50;;;;;;20941;6724;123843;-86
2022/09/11 02:10:41;;;;;;;2.40;1.60;;;17.60;60.60;;;;;;20726;6723;339955;-87
2022/09/11 02:13:29;;;;;;;3.73;1.40;;;17.60;60.60;;;;;;20934;6723;121150;-86
2022/09/11 02:16:08;;;;;;;1.98;1.70;;;17.80;60.50;;;;;;20743;6708;304856;-88
2022/09/11 02:19:00;;;;;;;2.97;1.70;;;17.70;60.40;;;;;;20758;6708;308300;-89
2022/09/11 02:21:36;;;;;;;2.37;1.52;;;18.00;59.70;;;;;;20756;6708;303306;-88
2022/09/11 02:24:12;;;;;;;3.53;1.80;;;18.40;58.90;;;;;;20625;6722;312540;-86
2022/09/11 02:26:54;;;;;;;1.67;1.50;;;18.40;58.90;;;;;;20718;6723;280320;-89
2022/09/11 02:29:30;;;;;;;1.50;1.40;;;18.50;58.30;;;;;;20837;6723;118023;-86
2022/09/11 02:32:07;;;;;;;3.00;1.70;;;18.20;59.70;;;;;;20675;6723;305965;-89
2022/09/11 02:34:42;;;;;;;1.97;1.57;;;18.20;59.10;;;;;;20868;6708;121287;-86
2022/09/11 02:37:37;;;;;;;1.37;1.23;;;18.00;59.10;;;;;;20965;6708;116693;-86
2022/09/11 02:40:25;;;;;;;1.60;1.30;;;17.70;59.60;;;;;;20907;6723;117804;-86
2022/09/11 02:43:31;;;;;;;1.60;1.50;;;17.50;60.10;;;;;;20871;6738;116780;-88
2022/09/11 02:46:17;;;;;;;1.73;1.30;;;17.10;60.60;;;;;;20903;6723;117968;-84
2022/09/11 02:49:19;;;;;;;2.20;1.43;;;17.10;60.60;;;;;;20858;6742;117065;-85
2022/09/11 02:52:18;;;;;;;2.27;1.70;;;17.00;60.90;;;;;;20637;6737;306262;-87
2022/09/11 02:55:17;;;;;;;2.00;1.80;;;17.30;61.80;;;;;;20608;6723;306074;-87
2022/09/11 02:58:05;;;;;;;1.90;1.80;;;17.80;61.00;;;;;;20740;6708;342264;-86
2022/09/11 03:00:40;;;;;;;3.05;1.83;;;18.00;60.10;;;;;;20744;6713;303774;-84
2022/09/11 03:03:18;;;;;;;3.10;1.37;;;18.20;59.80;;;;;;20965;6713;116026;-85
2022/09/11 03:05:52;;;;;;;1.73;1.60;;;18.00;59.70;;;;;;20914;6724;118047;-85
2022/09/11 03:08:27;;;;;;;2.30;1.83;;;17.70;60.30;;;;;;20720;6723;333385;-85
2022/09/11 03:11:03;;;;;;;1.80;1.70;;;18.00;60.10;;;;;;20715;6723;304452;-85
2022/09/11 03:13:39;;;;;;;2.10;1.40;;;18.00;60.00;;;;;;20908;6723;117267;-85
2022/09/11 03:16:15;;;;;;;2.95;1.90;;;17.90;59.90;;;;;;20573;6746;276982;-87
2022/09/11 03:18:50;;;;;;;3.73;2.07;;;17.90;60.10;;;;;;20660;6732;280414;-86
2022/09/11 03:21:26;;;;;;;2.00;1.90;;;18.20;59.70;;;;;;20606;6759;306805;-85
2022/09/11 03:24:02;;;;;;;2.80;1.83;;;18.30;59.10;;;;;;20755;6751;120354;-87
2022/09/11 03:26:37;;;;;;;2.08;1.65;;;18.10;59.20;;;;;;20568;6749;309955;-89
2022/09/11 03:29:13;;;;;;;2.10;1.60;;;18.10;59.70;;;;;;20884;6734;118166;-86
2022/09/11 03:31:53;;;;;;;1.63;1.47;;;17.90;59.70;;;;;;20852;6727;116982;-88
2022/09/11 03:34:28;;;;;;;1.97;1.60;;;17.60;60.20;;;;;;20861;6715;117703;-86
2022/09/11 03:37:04;;;;;;;2.75;2.00;;;17.40;60.90;;;;;;20686;6730;305213;-85
2022/09/11 03:39:39;;;;;;;2.17;2.07;;;17.60;61.50;;;;;;20661;6744;281770;-88
2022/09/11 03:42:15;;;;;;;2.80;2.20;;;17.90;61.20;;;;;;20678;6729;310495;-88
2022/09/11 03:44:51;;;;;;;2.40;1.80;;;18.20;60.00;;;;;;20723;6751;119130;-86
2022/09/11 03:47:26;;;;;;;3.43;1.70;;;18.00;60.30;;;;;;20849;6747;121796;-85
2022/09/11 03:50:02;;;;;;;1.70;1.60;;;17.70;60.30;;;;;;20724;6757;117831;-89
2022/09/11 03:52:39;;;;;;;3.45;2.05;;;17.50;60.90;;;;;;20665;6719;280682;-85
2022/09/11 03:55:15;;;;;;;2.23;2.03;;;17.60;61.40;;;;;;20479;6737;280151;-88
2022/09/11 03:57:50;;;;;;;2.00;1.80;;;17.90;60.70;;;;;;20896;6723;118069;-87
2022/09/11 04:00:26;;;;;;;5.43;2.00;;;17.80;60.60;;;;;;20933;6751;116377;-89
2022/09/11 04:03:02;;;;;;;3.12;2.22;;;17.60;61.00;;;;;;20733;6725;334484;-86
2022/09/11 04:05:37;;;;;;;2.43;2.20;;;17.80;61.20;;;;;;20516;6725;308019;-88
2022/09/11 04:08:13;;;;;;;2.17;1.97;;;18.10;60.50;;;;;;20908;6728;117126;-89
2022/09/11 04:10:48;;;;;;;2.33;1.77;;;18.00;60.30;;;;;;20884;6739;121243;-86
2022/09/11 04:13:34;;;;;;;2.10;1.90;;;17.70;60.60;;;;;;20841;6751;119719;-90
2022/09/11 04:16:09;;;;;;;3.80;1.70;;;17.50;61.20;;;;;;20863;6743;118498;-89
2022/09/11 04:18:46;;;;;;;3.12;2.10;;;17.30;61.60;;;;;;20644;6739;304687;-87
2022/09/11 04:21:21;;;;;;;2.07;1.87;;;17.60;62.10;;;;;;20703;6775;118268;-88
2022/09/11 04:23:58;;;;;;;2.30;2.10;;;17.60;61.50;;;;;;20748;6735;117426;-87
2022/09/11 04:26:33;;;;;;;2.37;1.73;;;17.40;61.80;;;;;;20821;6757;117439;-86
2022/09/11 04:29:09;;;;;;;4.47;2.65;;;17.50;62.70;;;;;;20656;6751;277348;-88
2022/09/11 04:31:45;;;;;;;2.13;1.90;;;17.40;62.60;;;;;;20829;6745;121233;-86
2022/09/11 04:34:20;;;;;;;2.90;2.20;;;17.50;62.10;;;;;;20826;6722;117378;-89
2022/09/11 04:36:56;;;;;;;2.70;2.40;;;17.60;63.00;;;;;;20673;6737;286628;-88
2022/09/11 04:39:33;;;;;;;4.73;2.30;;;17.50;62.30;;;;;;20854;6737;117278;-86
2022/09/11 04:42:09;;;;;;;2.07;1.97;;;17.50;62.00;;;;;;20798;6752;119207;-86
2022/09/11 04:44:54;;;;;;;2.97;2.30;;;17.30;62.20;;;;;;20604;6738;307625;-86
2022/09/11 04:47:23;;;;;;;2.63;2.40;;;17.60;62.40;;;;;;20618;6719;309602;-87
2022/09/11 04:49:56;;;;;;;3.03;2.40;;;17.90;61.40;;;;;;20592;6750;335312;-88
2022/09/11 04:52:33;;;;;;;2.10;1.97;;;18.10;60.70;;;;;;20853;6751;116881;-86
2022/09/11 04:55:07;;;;;;;2.43;2.23;;;18.00;60.60;;;;;;20762;6751;117165;-86
2022/09/11 04:57:43;;;;;;;3.25;2.47;;;17.80;61.70;;;;;;20664;6751;276783;-87
2022/09/11 05:00:19;;;;;;;3.87;2.70;;;17.70;61.50;;;;;;20587;6766;308486;-86
2022/09/11 05:02:54;;;;;;;2.30;1.93;;;18.10;61.00;;;;;;20790;6766;117479;-87
2022/09/11 05:05:30;;;;;;;2.23;2.00;;;17.90;60.90;;;;;;20687;6763;121648;-86
2022/09/11 05:08:10;;;;;;;2.43;2.30;;;17.70;61.50;;;;;;20791;6764;118618;-86
2022/09/11 05:10:47;;;;;;;2.77;2.57;;;17.40;61.80;;;;;;20594;6764;308244;-86
2022/09/11 05:13:19;;;;;;;3.17;2.57;;;17.60;62.20;;;;;;20850;6747;117509;-86
2022/09/11 05:16:02;;;;;;;2.47;2.20;;;17.40;62.10;;;;;;20605;6832;121786;-87
2022/09/11 05:18:39;;;;;;;3.33;2.20;;;17.30;62.00;;;;;;20862;6746;117444;-86
2022/09/11 05:21:16;;;;;;;4.20;2.23;;;17.00;62.90;;;;;;20862;6746;118510;-86
2022/09/11 05:23:52;;;;;;;3.07;2.60;;;17.10;62.70;;;;;;20577;6752;300977;-86
2022/09/11 05:26:28;;;;;;;2.40;2.30;;;17.40;62.50;;;;;;20825;6757;117136;-87
2022/09/11 05:29:11;;;;;;;2.20;2.10;;;17.30;62.40;;;;;;20819;6757;117379;-86
2022/09/11 05:31:47;;;;;;;3.43;2.50;;;17.20;62.50;;;;;;20798;6757;117509;-86
2022/09/11 05:34:23;;;;;;;2.60;2.50;;;17.00;62.80;;;;;;20750;6768;118158;-85
2022/09/11 05:37:01;;;;;;;2.47;2.27;;;16.90;63.10;;;;;;20876;6738;118414;-85
2022/09/11 05:39:34;;;;;;;3.83;2.30;;;16.80;63.30;;;;;;20936;6719;117909;-85
2022/09/11 05:42:20;;;;;;;3.03;1.83;;;16.80;63.50;;;;;;20900;6722;119055;-85
2022/09/11 05:44:46;;;;;;;2.60;2.40;;;16.70;63.60;;;;;;20834;6722;122677;-85
2022/09/11 05:47:21;;;;;;;2.30;2.20;;;16.70;63.70;;;;;;20927;6722;121608;-85
2022/09/11 05:49:57;;;;;;;3.00;2.70;;;16.80;64.10;;;;;;20665;6734;306829;-85
2022/09/11 05:52:33;;;;;;;2.70;2.50;;;17.10;64.60;;;;;;20719;6725;322545;-85
2022/09/11 05:55:08;;;;;;;2.70;2.30;;;17.60;63.30;;;;;;20809;6721;117285;-87
2022/09/11 05:57:43;;;;;;;2.30;2.20;;;17.60;62.60;;;;;;20986;6709;116692;-90
2022/09/11 06:00:19;;;;;;;5.83;2.00;;;17.50;63.50;;;;;;20983;6710;120550;-87
2022/09/11 06:02:55;;;;;;;2.70;2.10;;;17.30;63.10;;;;;;20876;6736;116050;-87
2022/09/11 06:05:30;;;;;;;2.80;2.60;;;17.20;63.30;;;;;;20485;6720;280749;-86
2022/09/11 06:08:07;;;;;;;2.73;2.53;;;17.50;63.40;;;;;;20511;6739;310091;-86
2022/09/11 06:10:57;;;;;;;;;;;;;;;;;;;;;
2022/09/11 06:13:29;;;;;;;2.78;2.58;;;17.90;62.30;;;;;;20467;6737;311118;-88
2022/09/11 06:16:15;;;;;;;2.30;2.20;;;18.10;62.40;;;;;;20847;6713;119525;-89
2022/09/11 06:18:51;;;;;;;2.60;2.50;;;18.00;62.00;;;;;;20764;6717;305087;-87
2022/09/11 06:21:28;;;;;;;4.60;2.30;;;18.20;62.00;;;;;;20982;6713;117165;-92
2022/09/11 06:24:02;;;;;;;3.50;2.70;;;18.20;61.90;;;;;;20566;6761;307346;-89
2022/09/11 06:26:38;;;;;;;2.93;2.73;;;18.30;61.90;;;;;;20202;6767;280149;-89
2022/09/11 06:29:14;;;;;;;2.80;2.27;;;18.60;61.00;;;;;;20852;6749;116970;-89
2022/09/11 06:31:50;;;;;;;2.60;2.40;;;18.50;61.00;;;;;;20655;6759;119964;-91
2022/09/11 06:34:25;;;;;;;2.58;2.37;;;18.30;61.50;;;;;;20676;6788;335880;-88
2022/09/11 06:37:01;;;;;;;2.80;2.65;;;18.50;61.70;;;;;;20713;6751;293813;-88
2022/09/11 06:39:37;;;;;;;2.60;2.40;;;18.80;60.70;;;;;;20840;6751;117002;-93
2022/09/11 06:42:12;;;;;;;2.40;2.30;;;18.70;60.30;;;;;;20882;6738;117018;-88
2022/09/11 06:44:50;;;;;;;3.00;2.70;;;18.40;60.80;;;;;;20674;6732;300928;-89
2022/09/11 06:47:24;;;;;;;2.80;2.60;;;18.60;61.20;;;;;;20905;6733;117067;-88
2022/09/11 06:50:00;;;;;;;2.40;2.20;;;18.50;61.10;;;;;;20577;6734;308596;-88
2022/09/11 06:52:35;;;;;;;2.40;2.20;;;18.70;61.00;;;;;;20721;6724;124414;-86
2022/09/11 06:55:13;;;;;;;2.40;2.20;;;18.70;60.80;;;;;;20752;6750;117746;-87
2022/09/11 06:57:48;;;;;;;2.35;2.22;;;18.70;61.00;;;;;;20698;6722;276613;-86
2022/09/11 07:00:24;;;;;;;3.60;2.37;;;18.70;61.00;;;;;;20913;6727;117117;-85
2022/09/11 07:03:01;;;;;;;2.97;2.40;;;18.70;61.20;;;;;;20846;6744;118006;-85
2022/09/11 07:05:38;;;;;;;4.63;2.30;;;18.50;61.10;;;;;;20864;6729;119642;-93
2022/09/11 07:08:11;;;;;;;2.13;2.03;;;18.40;61.50;;;;;;20888;6731;119210;-85
2022/09/11 07:10:48;;;;;;;2.60;2.40;;;18.30;61.50;;;;;;20590;6765;305867;-86
2022/09/11 07:13:23;;;;;;;2.47;2.23;;;18.60;62.30;;;;;;20775;6768;119245;-85
2022/09/11 07:16:02;;;;;;;2.75;2.40;;;18.60;61.70;;;;;;20611;6752;276738;-86
2022/09/11 07:18:41;;;;;;;2.40;2.23;;;18.90;61.50;;;;;;20781;6751;117445;-86
2022/09/11 07:21:17;;;;;;;2.30;2.07;;;18.90;61.10;;;;;;20709;6719;117476;-90
2022/09/11 07:23:55;;;;;;;2.50;2.10;;;18.80;61.20;;;;;;20990;6704;117202;-88
2022/09/11 07:26:31;;;;;;;2.43;2.27;;;18.60;61.40;;;;;;21056;6704;116744;-86
2022/09/11 07:29:06;;;;;;;2.20;2.10;;;18.50;61.50;;;;;;20949;6719;116903;-86
2022/09/11 07:31:46;;;;;;;2.47;2.33;;;18.40;61.60;;;;;;20888;6737;119992;-87
2022/09/11 07:34:21;;;;;;;2.93;2.40;;;18.40;61.70;;;;;;20934;6741;117585;-90
2022/09/11 07:36:56;;;;;;;2.80;2.50;;;18.40;61.90;;;;;;20692;6719;310609;-85
2022/09/11 07:39:32;;;;;;;2.50;2.30;;;18.70;61.90;;;;;;20933;6722;119741;-86
2022/09/11 07:42:07;;;;;;;2.90;2.70;;;18.90;61.50;;;;;;20658;6722;281119;-87
2022/09/11 07:44:43;;;;;;;2.87;2.67;;;19.20;60.80;;;;;;20557;6726;118622;-86
2022/09/11 07:47:18;;;;;;;2.43;2.30;;;19.20;60.30;;;;;;20800;6726;120359;-88
2022/09/11 07:49:56;;;;;;;3.00;2.80;;;19.10;60.50;;;;;;20615;6750;305361;-86
2022/09/11 07:52:31;;;;;;;2.53;2.43;;;19.30;60.70;;;;;;20679;6743;301729;-87
2022/09/11 07:55:08;;;;;;;2.60;2.30;;;19.70;60.00;;;;;;20807;6729;118786;-86
2022/09/11 07:57:46;;;;;;;2.83;2.47;;;19.60;59.60;;;;;;20955;6714;119035;-86
2022/09/11 08:00:21;;;;;;;2.30;2.20;;;19.40;59.70;;;;;;20876;6731;118929;-87
2022/09/11 08:02:57;;;;;;;2.92;2.70;;;19.30;60.00;;;;;;20655;6729;331465;-86
2022/09/11 08:05:33;;;;;;;2.97;2.80;;;19.40;60.10;;;;;;19755;6847;278372;-86
2022/09/11 08:08:08;;;;;;;2.40;2.20;;;19.80;59.60;;;;;;20882;6732;116718;-84
2022/09/11 08:10:54;;;;;;;;;;;;;;;;;;;;;
2022/09/11 08:13:19;;;;;;;2.90;2.70;;;19.50;59.50;;;;;;20539;6761;280054;-82
2022/09/11 08:15:55;;;;;;;1.77;1.67;;;19.60;59.40;;;;;;20637;6743;306004;-86
2022/09/11 08:18:30;;;;;;;1.40;1.30;;;19.80;58.20;;;;;;20727;6736;304189;-89
2022/09/11 08:21:07;;;;;;;2.63;1.40;;;20.20;55.20;;;;;;20911;6752;116436;-90
2022/09/11 08:23:42;;;;;;;1.50;1.40;;;20.10;55.50;;;;;;20705;6723;279083;-94
2022/09/11 08:26:21;;;;;;;1.70;1.60;;;20.30;55.40;;;;;;20570;6755;344229;-90
2022/09/11 08:29:06;;;;;;;1.70;1.60;;;20.70;54.90;;;;;;20830;6754;117758;-90
2022/09/11 08:31:35;;;;;;;1.73;1.57;;;20.70;55.00;;;;;;20748;6822;117391;-96
2022/09/11 08:34:10;;;;;;;1.40;1.30;;;20.60;55.50;;;;;;20794;6726;117443;-92
2022/09/11 08:36:56;;;;;;;;;;;;;;;;;;;;;
2022/09/11 08:39:23;;;;;;;1.83;1.70;;;20.30;56.40;;;;;;20458;6760;278489;-90
2022/09/11 08:42:01;;;;;;;1.80;1.60;;;20.70;56.20;;;;;;20843;6730;121447;-86
2022/09/11 08:44:48;;;;;;;2.17;2.00;;;20.80;56.00;;;;;;20762;6792;118644;-89
2022/09/11 08:47:23;;;;;;;1.83;1.73;;;20.70;56.10;;;;;;20682;6721;306666;-88
2022/09/11 08:50:02;;;;;;;1.40;1.40;;;21.00;55.50;;;;;;20864;6736;118057;-89
2022/09/11 08:52:38;;;;;;;1.40;1.40;;;21.10;55.80;;;;;;20843;6750;122327;-89
2022/09/11 08:55:16;;;;;;;1.93;1.77;;;21.10;55.80;;;;;;20488;6750;285235;-88
2022/09/11 08:57:54;;;;;;;1.93;1.83;;;21.40;55.60;;;;;;20677;6745;310836;-88
2022/09/11 09:00:32;;;;;;;2.00;1.90;;;21.90;55.00;;;;;;20684;6733;335618;-89
2022/09/11 09:03:19;;;;;;;1.90;1.80;;;22.80;52.80;;;;;;20636;6804;276691;-86
2022/09/11 09:06:25;;;;;;;1.80;1.70;;;22.80;52.80;;;;;;20853;6728;127768;-87
2022/09/11 09:09:20;;;;;;;1.70;1.60;;;22.80;53.00;;;;;;20918;6728;118060;-86
2022/09/11 09:12:24;;;;;;;1.90;1.80;;;22.60;53.80;;;;;;20903;6728;117871;-87
2022/09/11 09:14:57;;;;;;;2.43;2.33;;;22.60;54.40;;;;;;20534;6747;280375;-87
2022/09/11 09:17:43;;;;;;;2.80;2.60;;;23.10;53.20;;;;;;20827;6752;113820;-87
2022/09/11 09:20:15;;;;;;;2.30;2.20;;;23.40;52.90;;;;;;20569;6737;284522;-87
2022/09/11 09:23:01;;;;;;;2.40;2.30;;;23.80;51.40;;;;;;20669;6737;279032;-87
2022/09/11 09:25:37;;;;;;;2.55;2.40;;;24.20;51.40;;;;;;20202;6881;309252;-85
2022/09/11 09:28:25;;;;;;;3.33;3.03;;;24.60;50.00;;;;;;20814;6752;117522;-86
2022/09/11 09:31:02;;;;;;;2.63;2.53;;;24.50;49.90;;;;;;20557;6724;67004;-87
2022/09/11 09:33:36;;;;;;;3.07;2.97;;;24.20;50.10;;;;;;20729;6733;117218;-86
2022/09/11 09:36:32;;;;;;;2.97;2.80;;;23.80;50.20;;;;;;20958;6701;116976;-87
2022/09/11 09:39:15;;;;;;;2.53;2.33;;;23.50;50.70;;;;;;20841;6743;117116;-88
2022/09/11 09:45:05;;;;;;;2.62;2.53;;;22.80;51.70;;;;;;20310;6733;308134;-88
2022/09/11 09:47:43;;;;;;;2.43;2.33;;;22.90;51.50;;;;;;20552;6719;69344;-86
2022/09/11 09:50:27;;;;;;;2.40;2.30;;;22.70;51.70;;;;;;20814;6716;119270;-87
2022/09/11 09:53:11;;;;;;;3.27;3.00;;;22.50;52.30;;;;;;20614;6745;277842;-88
2022/09/11 09:55:47;;;;;;;3.33;3.15;;;22.70;51.90;;;;;;20359;6841;308594;-88
2022/09/11 09:58:32;;;;;;;;;;;;;;;;;;;;;
2022/09/11 10:00:58;;;;;;;3.10;3.00;;;23.30;52.00;;;;;;20428;6748;277481;-87
2022/09/11 10:03:33;;;;;;;3.20;3.00;;;23.50;50.30;;;;;;20613;6750;316661;-85
2022/09/11 10:06:09;;;;;;;2.90;2.80;;;23.70;50.50;;;;;;20611;6748;296856;-87
2022/09/11 10:08:54;;;;;;;;;;;;;;;;;;;;;
2022/09/11 10:11:22;;;;;;;2.73;2.53;;;23.80;50.60;;;;;;20767;6744;116290;-87
2022/09/11 10:13:58;;;;;;;2.40;2.30;;;23.40;50.90;;;;;;20806;6741;119244;-88
2022/09/11 10:16:33;;;;;;;2.23;2.13;;;23.20;51.30;;;;;;20895;6744;116034;-86
2022/09/11 10:19:08;;;;;;;2.70;2.50;;;22.90;51.40;;;;;;20856;6737;119054;-85
2022/09/11 10:21:49;;;;;;;2.27;2.20;;;22.80;51.90;;;;;;20745;6831;70961;-85
2022/09/11 10:24:25;;;;;;;2.00;2.00;;;22.70;52.00;;;;;;20825;6734;117937;-86
2022/09/11 10:27:00;;;;;;;2.30;2.20;;;22.60;52.00;;;;;;20665;6734;277461;-85
2022/09/11 10:29:37;;;;;;;2.67;2.50;;;22.90;51.10;;;;;;20642;6729;310576;-87
2022/09/11 10:32:12;;;;;;;3.10;2.83;;;23.30;50.60;;;;;;20675;6739;117665;-84
2022/09/11 10:34:48;;;;;;;4.33;3.43;;;23.20;50.70;;;;;;20681;6744;118312;-87
2022/09/11 10:37:28;;;;;;;3.27;2.90;;;22.90;51.20;;;;;;20924;6721;117987;-87
2022/09/11 10:40:07;;;;;;;4.03;3.57;;;22.50;51.80;;;;;;20869;6736;120783;-87
2022/09/11 10:42:43;;;;;;;3.53;3.03;;;22.20;52.60;;;;;;20898;6735;116793;-87
2022/09/11 10:45:20;;;;;;;3.50;3.30;;;22.00;53.40;;;;;;20770;6716;118397;-87
2022/09/11 10:47:54;;;;;;;3.50;3.03;;;21.90;54.00;;;;;;20897;6743;117625;-88
2022/09/11 10:50:33;;;;;;;3.93;2.60;;;21.90;54.50;;;;;;20900;6723;117932;-87
2022/09/11 10:53:15;;;;;;;3.45;3.25;;;22.00;54.90;;;;;;20626;6733;278207;-87
2022/09/11 10:55:53;;;;;;;3.33;3.12;;;22.50;57.50;;;;;;20664;6729;281029;-87
2022/09/11 10:58:34;;;;;;;3.17;3.07;;;23.30;54.90;;;;;;20839;6748;117784;-89
2022/09/11 11:01:10;;;;;;;3.30;3.10;;;23.60;55.10;;;;;;20864;6725;116099;-85
2022/09/11 11:03:45;;;;;;;3.10;2.67;;;23.80;54.90;;;;;;20747;6750;118742;-85
2022/09/11 11:06:41;;;;;;;2.70;2.60;;;23.80;54.20;;;;;;20833;6754;117422;-87
2022/09/11 11:09:50;;;;;;;5.10;2.93;;;23.80;54.00;;;;;;20450;6744;118432;-89
2022/09/11 11:12:30;;;;;;;2.97;2.87;;;23.60;53.60;;;;;;20810;6744;117722;-84
2022/09/11 11:15:29;;;;;;;3.70;3.50;;;23.50;53.30;;;;;;20727;6744;117949;-86
2022/09/11 11:18:16;;;;;;;3.30;3.13;;;23.30;53.20;;;;;;20778;6764;121060;-85
2022/09/11 11:20:59;;;;;;;3.40;3.30;;;23.10;53.10;;;;;;20599;6764;310814;-85
2022/09/11 11:23:53;;;;;;;3.80;3.60;;;23.30;51.90;;;;;;20179;6820;119708;-84
2022/09/11 11:26:56;;;;;;;3.40;3.20;;;23.30;51.90;;;;;;20901;6744;116760;-84
2022/09/11 11:29:41;;;;;;;4.00;3.70;;;23.10;52.30;;;;;;20829;6747;116318;-85
2022/09/11 11:32:41;;;;;;;3.10;2.90;;;22.90;52.70;;;;;;20802;6818;121777;-84
2022/09/11 11:35:22;;;;;;;3.20;3.10;;;22.80;53.10;;;;;;20682;6774;117535;-84
2022/09/11 11:38:08;;;;;;;3.77;3.57;;;22.80;53.40;;;;;;20869;6736;118248;-85
2022/09/11 11:41:09;;;;;;;3.50;3.20;;;22.90;53.00;;;;;;20888;6736;117097;-86
2022/09/11 11:43:44;;;;;;;3.63;3.47;;;22.80;52.90;;;;;;20735;6766;118421;-85
2022/09/11 11:46:32;;;;;;;3.80;3.60;;;22.90;52.70;;;;;;20517;6836;307473;-85
2022/09/11 11:49:13;;;;;;;4.18;3.97;;;23.30;51.20;;;;;;20659;6744;306526;-87
2022/09/11 11:51:49;;;;;;;3.97;3.77;;;23.80;50.30;;;;;;20834;6759;117606;-86
2022/09/11 11:54:32;;;;;;;3.80;3.60;;;23.80;50.00;;;;;;20735;6746;121991;-87
2022/09/11 11:57:11;;;;;;;3.37;3.27;;;23.40;50.20;;;;;;20858;6748;118863;-88
2022/09/11 11:59:49;;;;;;;3.80;3.60;;;23.40;50.20;;;;;;20759;6733;117288;-86
2022/09/11 12:02:32;;;;;;;3.97;3.80;;;23.20;50.60;;;;;;20568;6733;309290;-88
2022/09/11 12:05:14;;;;;;;4.93;4.67;;;23.40;49.50;;;;;;20005;6831;311812;-87
2022/09/11 12:07:51;;;;;;;4.03;3.72;;;23.70;47.90;;;;;;20718;6719;278867;-88
2022/09/11 12:10:33;;;;;;;5.10;4.80;;;24.00;48.30;;;;;;20411;6728;309462;-88
2022/09/11 12:13:14;;;;;;;5.00;4.70;;;24.10;46.90;;;;;;20716;6728;310055;-90
2022/09/11 12:16:33;;;;;;;5.20;4.90;;;24.10;46.80;;;;;;20152;6970;312627;-89
2022/09/11 12:19:16;;;;;;;4.68;4.47;;;24.10;47.40;;;;;;20393;6773;351806;-87
2022/09/11 12:21:51;;;;;;;4.43;4.23;;;24.10;46.90;;;;;;20533;6752;119310;-86
2022/09/11 12:24:46;;;;;;;4.40;4.03;;;23.80;47.70;;;;;;20780;6727;118367;-88
2022/09/11 12:27:36;;;;;;;4.10;4.00;;;23.30;48.50;;;;;;20651;6727;280208;-86
2022/09/11 12:30:17;;;;;;;4.60;4.30;;;23.40;49.40;;;;;;20690;6727;278449;-86
2022/09/11 12:32:58;;;;;;;4.43;4.20;;;23.60;49.30;;;;;;20669;6727;306754;-85
2022/09/11 12:35:28;;;;;;;4.35;4.15;;;23.90;48.70;;;;;;20546;6727;313076;-88
2022/09/11 12:38:14;;;;;;;3.60;3.50;;;24.00;48.00;;;;;;20903;6727;122800;-89
2022/09/11 12:41:06;;;;;;;;;;;;;;;;;;;;;
2022/09/11 12:46:35;;;;;;;3.87;3.57;;;23.70;49.00;;;;;;21290;6545;93589;-88
2022/09/11 12:49:00;;;;;;;4.30;4.10;;;23.60;49.10;;;;;;20556;6821;338555;-88
2022/09/11 12:51:25;;;;;;;4.10;3.90;;;23.70;48.70;;;;;;20737;6821;118082;-89
2022/09/11 12:53:51;;;;;;;4.47;4.17;;;23.70;48.50;;;;;;20734;6810;117657;-89
2022/09/11 12:56:22;;;;;;;4.37;4.17;;;23.80;48.30;;;;;;20336;6891;284878;-89
2022/09/11 12:58:57;;;;;;;4.30;4.10;;;23.80;48.30;;;;;;20314;6892;311133;-88
2022/09/11 13:01:22;;;;;;;4.13;3.93;;;24.10;47.80;;;;;;20606;6876;116668;-89
2022/09/11 13:03:55;;;;;;;4.40;4.20;;;24.10;47.90;;;;;;20331;6892;339768;-89
2022/09/11 13:06:20;;;;;;;4.12;3.92;;;24.20;47.20;;;;;;20345;6892;332455;-90
2022/09/11 13:08:51;;;;;;;4.47;4.17;;;24.40;46.50;;;;;;20358;6892;288470;-88
2022/09/11 13:11:42;;;;;;;3.87;3.67;;;24.60;46.40;;;;;;20623;6877;117513;-90
2022/09/11 13:14:28;;;;;;;3.50;3.40;;;24.50;46.70;;;;;;20510;6892;121646;-88
2022/09/11 13:16:57;;;;;;;3.90;3.70;;;24.20;47.20;;;;;;20527;6892;117663;-90
2022/09/11 13:19:22;;;;;;;3.70;3.40;;;23.90;47.60;;;;;;20537;6892;117474;-88
2022/09/11 13:21:52;;;;;;;4.60;4.40;;;23.60;47.80;;;;;;20295;6892;340422;-88
2022/09/11 13:24:26;;;;;;;4.40;4.20;;;23.80;46.50;;;;;;20529;6903;117814;-88
2022/09/11 13:26:56;;;;;;;4.40;4.20;;;23.70;46.30;;;;;;20580;6885;117604;-88
2022/09/11 13:29:21;;;;;;;4.33;4.13;;;23.70;46.80;;;;;;20197;6885;280178;-89
2022/09/11 13:31:47;;;;;;;4.40;4.10;;;23.70;46.80;;;;;;20255;6913;281548;-87
2022/09/11 13:34:13;;;;;;;4.20;4.00;;;24.30;46.10;;;;;;20284;6912;309966;-88
2022/09/11 13:36:39;;;;;;;4.37;4.07;;;24.30;46.10;;;;;;20325;6898;280547;-87
2022/09/11 13:39:05;;;;;;;4.07;3.87;;;24.40;45.30;;;;;;20551;6898;119823;-88
2022/09/11 13:41:31;;;;;;;3.97;3.77;;;24.40;45.30;;;;;;20525;6898;117639;-88
2022/09/11 13:43:56;;;;;;;4.32;4.03;;;24.10;45.70;;;;;;20491;6898;118039;-89
2022/09/11 13:46:22;;;;;;;4.23;4.03;;;23.80;46.40;;;;;;20543;6898;117758;-89